sensor_id;sensor_type;location;lat;lon;timestamp;temperature;humidity
1956;DHT22;978;48.314;11.562;2024-02-23T00:02:27;20.40;66.80
1956;DHT22;978;48.314;11.562;2024-02-23T00:04:56;20.40;66.80
1956;DHT22;978;48.314;11.562;2024-02-23T00:07:24;20.40;66.80
1956;DHT22;978;48.314;11.562;2024-02-23T00:09:53;20.40;66.70
1956;DHT22;978;48.314;11.562;2024-02-23T00:12:21;20.50;66.80
1956;DHT22;978;48.314;11.562;2024-02-23T00:14:49;20.50;66.70
1956;DHT22;978;48.314;11.562;2024-02-23T00:17:18;20.40;67.30
1956;DHT22;978;48.314;11.562;2024-02-23T00:19:46;20.40;66.60
1956;DHT22;978;48.314;11.562;2024-02-23T00:22:17;20.50;66.60
1956;DHT22;978;48.314;11.562;2024-02-23T00:24:45;20.40;66.50
1956;DHT22;978;48.314;11.562;2024-02-23T00:27:13;20.50;66.50
1956;DHT22;978;48.314;11.562;2024-02-23T00:29:41;20.40;66.50
1956;DHT22;978;48.314;11.562;2024-02-23T00:32:09;20.50;66.50
1956;DHT22;978;48.314;11.562;2024-02-23T00:34:37;20.40;66.40
1956;DHT22;978;48.314;11.562;2024-02-23T00:37:05;20.40;66.40
1956;DHT22;978;48.314;11.562;2024-02-23T00:39:37;20.40;66.40
1956;DHT22;978;48.314;11.562;2024-02-23T00:42:06;20.40;66.30
1956;DHT22;978;48.314;11.562;2024-02-23T00:44:36;20.50;66.30
1956;DHT22;978;48.314;11.562;2024-02-23T00:47:04;20.40;66.20
1956;DHT22;978;48.314;11.562;2024-02-23T00:49:33;20.40;66.20
1956;DHT22;978;48.314;11.562;2024-02-23T00:52:03;20.40;66.20
1956;DHT22;978;48.314;11.562;2024-02-23T00:54:31;20.40;66.10
1956;DHT22;978;48.314;11.562;2024-02-23T00:57:00;20.40;66.10
1956;DHT22;978;48.314;11.562;2024-02-23T00:59:28;20.40;66.00
1956;DHT22;978;48.314;11.562;2024-02-23T01:01:56;20.40;66.00
1956;DHT22;978;48.314;11.562;2024-02-23T01:04:24;20.40;65.90
1956;DHT22;978;48.314;11.562;2024-02-23T01:06:52;20.40;65.90
1956;DHT22;978;48.314;11.562;2024-02-23T01:09:21;20.40;65.90
1956;DHT22;978;48.314;11.562;2024-02-23T01:11:49;20.50;65.90
1956;DHT22;978;48.314;11.562;2024-02-23T01:14:19;20.50;65.90
1956;DHT22;978;48.314;11.562;2024-02-23T01:16:47;20.40;65.80
1956;DHT22;978;48.314;11.562;2024-02-23T01:19:15;20.40;65.80
1956;DHT22;978;48.314;11.562;2024-02-23T01:21:43;20.40;65.70
1956;DHT22;978;48.314;11.562;2024-02-23T01:24:10;20.50;65.70
1956;DHT22;978;48.314;11.562;2024-02-23T01:26:40;20.40;65.60
1956;DHT22;978;48.314;11.562;2024-02-23T01:29:10;20.40;65.60
1956;DHT22;978;48.314;11.562;2024-02-23T01:31:44;20.40;65.60
1956;DHT22;978;48.314;11.562;2024-02-23T01:34:11;20.40;65.60
1956;DHT22;978;48.314;11.562;2024-02-23T01:36:42;20.50;65.60
1956;DHT22;978;48.314;11.562;2024-02-23T01:39:10;20.40;65.50
1956;DHT22;978;48.314;11.562;2024-02-23T01:41:38;20.40;65.50
1956;DHT22;978;48.314;11.562;2024-02-23T01:44:06;20.40;65.50
1956;DHT22;978;48.314;11.562;2024-02-23T01:46:35;20.40;65.50
1956;DHT22;978;48.314;11.562;2024-02-23T01:49:06;20.40;65.50
1956;DHT22;978;48.314;11.562;2024-02-23T01:51:36;20.40;65.40
1956;DHT22;978;48.314;11.562;2024-02-23T01:54:04;20.40;65.40
1956;DHT22;978;48.314;11.562;2024-02-23T01:56:37;20.40;66.00
1956;DHT22;978;48.314;11.562;2024-02-23T01:59:05;20.40;65.40
1956;DHT22;978;48.314;11.562;2024-02-23T02:01:35;20.40;65.40
1956;DHT22;978;48.314;11.562;2024-02-23T02:04:05;20.40;65.40
1956;DHT22;978;48.314;11.562;2024-02-23T02:06:33;20.40;65.40
1956;DHT22;978;48.314;11.562;2024-02-23T02:09:01;20.40;65.40
1956;DHT22;978;48.314;11.562;2024-02-23T02:11:29;20.40;65.40
1956;DHT22;978;48.314;11.562;2024-02-23T02:13:57;20.50;65.40
1956;DHT22;978;48.314;11.562;2024-02-23T02:16:25;20.50;65.40
1956;DHT22;978;48.314;11.562;2024-02-23T02:18:54;20.40;65.30
1956;DHT22;978;48.314;11.562;2024-02-23T02:21:23;20.40;65.30
1956;DHT22;978;48.314;11.562;2024-02-23T02:23:51;20.40;65.30
1956;DHT22;978;48.314;11.562;2024-02-23T02:26:19;20.40;65.30
1956;DHT22;978;48.314;11.562;2024-02-23T02:28:47;20.40;65.20
1956;DHT22;978;48.314;11.562;2024-02-23T02:31:16;20.40;65.20
1956;DHT22;978;48.314;11.562;2024-02-23T02:33:44;20.40;65.20
1956;DHT22;978;48.314;11.562;2024-02-23T02:36:12;20.40;65.10
1956;DHT22;978;48.314;11.562;2024-02-23T02:38:41;20.40;65.10
1956;DHT22;978;48.314;11.562;2024-02-23T02:41:09;20.40;65.10
1956;DHT22;978;48.314;11.562;2024-02-23T02:43:37;20.40;65.10
1956;DHT22;978;48.314;11.562;2024-02-23T02:46:05;20.40;65.10
1956;DHT22;978;48.314;11.562;2024-02-23T02:48:33;20.40;65.10
1956;DHT22;978;48.314;11.562;2024-02-23T02:51:01;20.40;65.10
1956;DHT22;978;48.314;11.562;2024-02-23T02:53:29;20.40;65.10
1956;DHT22;978;48.314;11.562;2024-02-23T02:55:59;20.40;65.00
1956;DHT22;978;48.314;11.562;2024-02-23T02:58:27;20.50;65.10
1956;DHT22;978;48.314;11.562;2024-02-23T03:00:55;20.40;65.10
1956;DHT22;978;48.314;11.562;2024-02-23T03:03:23;20.40;65.00
1956;DHT22;978;48.314;11.562;2024-02-23T03:05:51;20.40;65.00
1956;DHT22;978;48.314;11.562;2024-02-23T03:08:19;20.40;65.00
1956;DHT22;978;48.314;11.562;2024-02-23T03:10:48;20.40;65.00
1956;DHT22;978;48.314;11.562;2024-02-23T03:13:18;20.50;65.10
1956;DHT22;978;48.314;11.562;2024-02-23T03:15:46;20.40;65.00
1956;DHT22;978;48.314;11.562;2024-02-23T03:18:14;20.40;64.90
1956;DHT22;978;48.314;11.562;2024-02-23T03:20:42;20.40;64.90
1956;DHT22;978;48.314;11.562;2024-02-23T03:23:11;20.40;65.00
1956;DHT22;978;48.314;11.562;2024-02-23T03:25:39;20.40;64.90
1956;DHT22;978;48.314;11.562;2024-02-23T03:28:06;20.40;64.90
1956;DHT22;978;48.314;11.562;2024-02-23T03:30:36;20.40;64.90
1956;DHT22;978;48.314;11.562;2024-02-23T03:33:04;20.40;64.90
1956;DHT22;978;48.314;11.562;2024-02-23T03:35:32;20.40;64.90
1956;DHT22;978;48.314;11.562;2024-02-23T03:38:01;20.40;64.90
1956;DHT22;978;48.314;11.562;2024-02-23T03:40:29;20.40;64.90
1956;DHT22;978;48.314;11.562;2024-02-23T03:42:57;20.40;64.80
1956;DHT22;978;48.314;11.562;2024-02-23T03:45:25;20.40;64.80
1956;DHT22;978;48.314;11.562;2024-02-23T03:47:55;20.40;64.80
1956;DHT22;978;48.314;11.562;2024-02-23T03:50:23;20.40;64.80
1956;DHT22;978;48.314;11.562;2024-02-23T03:52:51;20.40;64.80
1956;DHT22;978;48.314;11.562;2024-02-23T03:55:19;20.40;64.80
1956;DHT22;978;48.314;11.562;2024-02-23T03:57:48;20.40;64.80
1956;DHT22;978;48.314;11.562;2024-02-23T04:00:17;20.40;64.80
1956;DHT22;978;48.314;11.562;2024-02-23T04:02:46;20.40;64.80
1956;DHT22;978;48.314;11.562;2024-02-23T04:05:14;20.40;64.70
1956;DHT22;978;48.314;11.562;2024-02-23T04:07:42;20.40;64.80
1956;DHT22;978;48.314;11.562;2024-02-23T04:10:10;20.40;64.70
1956;DHT22;978;48.314;11.562;2024-02-23T04:12:43;20.50;64.80
1956;DHT22;978;48.314;11.562;2024-02-23T04:15:11;20.60;64.80
1956;DHT22;978;48.314;11.562;2024-02-23T04:17:40;20.40;64.70
1956;DHT22;978;48.314;11.562;2024-02-23T04:20:09;20.40;64.70
1956;DHT22;978;48.314;11.562;2024-02-23T04:22:39;20.40;64.70
1956;DHT22;978;48.314;11.562;2024-02-23T04:25:06;20.40;64.70
1956;DHT22;978;48.314;11.562;2024-02-23T04:27:35;20.40;64.60
1956;DHT22;978;48.314;11.562;2024-02-23T04:30:04;20.40;64.70
1956;DHT22;978;48.314;11.562;2024-02-23T04:32:32;20.40;64.60
1956;DHT22;978;48.314;11.562;2024-02-23T04:35:01;20.40;64.60
1956;DHT22;978;48.314;11.562;2024-02-23T04:37:29;20.40;64.60
1956;DHT22;978;48.314;11.562;2024-02-23T04:39:58;20.40;64.60
1956;DHT22;978;48.314;11.562;2024-02-23T04:42:26;20.40;64.70
1956;DHT22;978;48.314;11.562;2024-02-23T04:44:54;20.40;64.70
1956;DHT22;978;48.314;11.562;2024-02-23T04:47:22;20.40;64.60
1956;DHT22;978;48.314;11.562;2024-02-23T04:49:50;20.40;64.60
1956;DHT22;978;48.314;11.562;2024-02-23T04:52:18;20.50;64.70
1956;DHT22;978;48.314;11.562;2024-02-23T04:54:45;20.40;64.60
1956;DHT22;978;48.314;11.562;2024-02-23T04:57:16;20.40;64.50
1956;DHT22;978;48.314;11.562;2024-02-23T04:59:44;20.40;64.50
1956;DHT22;978;48.314;11.562;2024-02-23T05:02:13;20.40;64.50
1956;DHT22;978;48.314;11.562;2024-02-23T05:04:40;20.40;64.50
1956;DHT22;978;48.314;11.562;2024-02-23T05:07:08;20.40;64.50
1956;DHT22;978;48.314;11.562;2024-02-23T05:09:36;20.40;64.50
1956;DHT22;978;48.314;11.562;2024-02-23T05:12:04;20.40;65.10
1956;DHT22;978;48.314;11.562;2024-02-23T05:14:38;20.40;64.50
1956;DHT22;978;48.314;11.562;2024-02-23T05:17:06;20.40;64.50
1956;DHT22;978;48.314;11.562;2024-02-23T05:19:36;20.40;64.50
1956;DHT22;978;48.314;11.562;2024-02-23T05:22:04;20.40;64.50
1956;DHT22;978;48.314;11.562;2024-02-23T05:24:34;20.40;64.50
1956;DHT22;978;48.314;11.562;2024-02-23T05:27:03;20.40;64.50
1956;DHT22;978;48.314;11.562;2024-02-23T05:29:31;20.40;64.50
1956;DHT22;978;48.314;11.562;2024-02-23T05:32:00;20.50;64.50
1956;DHT22;978;48.314;11.562;2024-02-23T05:34:27;20.40;64.50
1956;DHT22;978;48.314;11.562;2024-02-23T05:36:56;20.40;64.50
1956;DHT22;978;48.314;11.562;2024-02-23T05:39:24;20.40;64.50
1956;DHT22;978;48.314;11.562;2024-02-23T05:41:51;20.40;64.50
1956;DHT22;978;48.314;11.562;2024-02-23T05:44:21;20.40;64.50
1956;DHT22;978;48.314;11.562;2024-02-23T05:46:49;20.40;64.40
1956;DHT22;978;48.314;11.562;2024-02-23T05:49:19;20.40;64.50
1956;DHT22;978;48.314;11.562;2024-02-23T05:51:47;20.40;64.50
1956;DHT22;978;48.314;11.562;2024-02-23T05:54:17;20.50;65.10
1956;DHT22;978;48.314;11.562;2024-02-23T05:56:45;20.40;64.50
1956;DHT22;978;48.314;11.562;2024-02-23T05:59:12;20.40;64.40
1956;DHT22;978;48.314;11.562;2024-02-23T06:01:40;20.40;64.40
1956;DHT22;978;48.314;11.562;2024-02-23T06:04:07;20.40;64.40
1956;DHT22;978;48.314;11.562;2024-02-23T06:06:42;20.40;64.40
1956;DHT22;978;48.314;11.562;2024-02-23T06:09:10;20.40;64.40
1956;DHT22;978;48.314;11.562;2024-02-23T06:11:40;20.40;64.40
1956;DHT22;978;48.314;11.562;2024-02-23T06:14:09;20.50;64.50
1956;DHT22;978;48.314;11.562;2024-02-23T06:16:38;20.40;64.40
1956;DHT22;978;48.314;11.562;2024-02-23T06:19:06;20.40;64.40
1956;DHT22;978;48.314;11.562;2024-02-23T06:21:33;21.50;65.10
1956;DHT22;978;48.314;11.562;2024-02-23T06:24:03;20.40;64.50
1956;DHT22;978;48.314;11.562;2024-02-23T06:26:31;20.40;64.40
1956;DHT22;978;48.314;11.562;2024-02-23T06:28:58;20.40;64.40
1956;DHT22;978;48.314;11.562;2024-02-23T06:31:26;20.40;64.40
1956;DHT22;978;48.314;11.562;2024-02-23T06:33:54;20.50;64.50
1956;DHT22;978;48.314;11.562;2024-02-23T06:36:21;20.40;64.40
1956;DHT22;978;48.314;11.562;2024-02-23T06:38:49;20.40;64.40
1956;DHT22;978;48.314;11.562;2024-02-23T06:41:18;20.40;64.40
1956;DHT22;978;48.314;11.562;2024-02-23T06:43:46;20.40;64.50
1956;DHT22;978;48.314;11.562;2024-02-23T06:46:14;20.40;64.50
1956;DHT22;978;48.314;11.562;2024-02-23T06:48:41;20.40;64.50
1956;DHT22;978;48.314;11.562;2024-02-23T06:51:09;20.40;64.50
1956;DHT22;978;48.314;11.562;2024-02-23T06:53:37;20.40;64.40
1956;DHT22;978;48.314;11.562;2024-02-23T06:56:05;20.40;64.50
1956;DHT22;978;48.314;11.562;2024-02-23T06:58:34;20.40;64.40
1956;DHT22;978;48.314;11.562;2024-02-23T07:01:03;20.40;64.40
1956;DHT22;978;48.314;11.562;2024-02-23T07:03:32;20.40;64.40
1956;DHT22;978;48.314;11.562;2024-02-23T07:06:02;20.40;64.40
1956;DHT22;978;48.314;11.562;2024-02-23T07:08:30;20.40;64.40
1956;DHT22;978;48.314;11.562;2024-02-23T07:10:56;20.40;64.40
1956;DHT22;978;48.314;11.562;2024-02-23T07:13:32;20.40;64.40
1956;DHT22;978;48.314;11.562;2024-02-23T07:16:02;20.40;64.40
1956;DHT22;978;48.314;11.562;2024-02-23T07:18:30;20.40;64.50
1956;DHT22;978;48.314;11.562;2024-02-23T07:20:59;20.40;64.40
1956;DHT22;978;48.314;11.562;2024-02-23T07:23:28;20.40;64.40
1956;DHT22;978;48.314;11.562;2024-02-23T07:25:55;20.40;64.40
1956;DHT22;978;48.314;11.562;2024-02-23T07:28:23;20.40;64.50
1956;DHT22;978;48.314;11.562;2024-02-23T07:30:51;20.40;64.40
1956;DHT22;978;48.314;11.562;2024-02-23T07:33:21;20.40;64.50
1956;DHT22;978;48.314;11.562;2024-02-23T07:35:49;20.50;64.50
1956;DHT22;978;48.314;11.562;2024-02-23T07:38:17;20.40;64.40
1956;DHT22;978;48.314;11.562;2024-02-23T07:40:46;20.40;64.40
1956;DHT22;978;48.314;11.562;2024-02-23T07:43:14;20.40;64.50
1956;DHT22;978;48.314;11.562;2024-02-23T07:45:42;20.50;64.50
1956;DHT22;978;48.314;11.562;2024-02-23T07:48:10;20.40;64.40
1956;DHT22;978;48.314;11.562;2024-02-23T07:50:39;20.40;64.40
1956;DHT22;978;48.314;11.562;2024-02-23T07:53:06;20.40;64.40
1956;DHT22;978;48.314;11.562;2024-02-23T07:55:35;20.40;64.40
1956;DHT22;978;48.314;11.562;2024-02-23T07:58:03;20.40;64.40
1956;DHT22;978;48.314;11.562;2024-02-23T08:00:31;20.40;64.40
1956;DHT22;978;48.314;11.562;2024-02-23T08:03:03;20.40;64.30
1956;DHT22;978;48.314;11.562;2024-02-23T08:05:31;20.40;64.40
1956;DHT22;978;48.314;11.562;2024-02-23T08:08:01;20.40;64.40
1956;DHT22;978;48.314;11.562;2024-02-23T08:10:29;20.40;64.40
1956;DHT22;978;48.314;11.562;2024-02-23T08:12:58;20.40;64.40
1956;DHT22;978;48.314;11.562;2024-02-23T08:15:26;20.40;64.40
1956;DHT22;978;48.314;11.562;2024-02-23T08:17:54;20.40;64.40
1956;DHT22;978;48.314;11.562;2024-02-23T08:20:22;20.40;64.40
1956;DHT22;978;48.314;11.562;2024-02-23T08:22:51;20.50;64.40
1956;DHT22;978;48.314;11.562;2024-02-23T08:25:20;20.40;64.30
1956;DHT22;978;48.314;11.562;2024-02-23T08:27:48;20.40;64.30
1956;DHT22;978;48.314;11.562;2024-02-23T08:30:17;20.40;64.30
1956;DHT22;978;48.314;11.562;2024-02-23T08:32:46;20.40;64.30
1956;DHT22;978;48.314;11.562;2024-02-23T08:35:14;20.40;64.30
1956;DHT22;978;48.314;11.562;2024-02-23T08:37:41;20.40;64.30
1956;DHT22;978;48.314;11.562;2024-02-23T08:40:12;20.40;64.30
1956;DHT22;978;48.314;11.562;2024-02-23T08:42:42;20.40;64.30
1956;DHT22;978;48.314;11.562;2024-02-23T08:45:10;19.60;63.80
1956;DHT22;978;48.314;11.562;2024-02-23T08:47:41;20.50;64.30
1956;DHT22;978;48.314;11.562;2024-02-23T08:50:10;20.40;64.30
1956;DHT22;978;48.314;11.562;2024-02-23T08:52:38;20.40;64.20
1956;DHT22;978;48.314;11.562;2024-02-23T08:55:06;20.40;64.20
1956;DHT22;978;48.314;11.562;2024-02-23T08:57:33;20.40;64.20
1956;DHT22;978;48.314;11.562;2024-02-23T09:00:02;21.20;64.70
1956;DHT22;978;48.314;11.562;2024-02-23T09:02:31;20.50;64.30
1956;DHT22;978;48.314;11.562;2024-02-23T09:05:01;20.40;64.20
1956;DHT22;978;48.314;11.562;2024-02-23T09:07:30;20.40;64.20
1956;DHT22;978;48.314;11.562;2024-02-23T09:09:58;20.40;64.20
1956;DHT22;978;48.314;11.562;2024-02-23T09:12:25;20.40;64.20
1956;DHT22;978;48.314;11.562;2024-02-23T09:14:53;20.40;64.20
1956;DHT22;978;48.314;11.562;2024-02-23T09:17:22;20.40;64.20
1956;DHT22;978;48.314;11.562;2024-02-23T09:19:52;20.40;64.10
1956;DHT22;978;48.314;11.562;2024-02-23T09:22:20;20.40;64.10
1956;DHT22;978;48.314;11.562;2024-02-23T09:24:47;20.40;64.70
1956;DHT22;978;48.314;11.562;2024-02-23T09:27:14;20.40;64.10
1956;DHT22;978;48.314;11.562;2024-02-23T09:29:42;21.40;64.60
1956;DHT22;978;48.314;11.562;2024-02-23T09:32:09;20.40;64.10
1956;DHT22;978;48.314;11.562;2024-02-23T09:34:39;20.40;64.00
1956;DHT22;978;48.314;11.562;2024-02-23T09:37:06;20.40;64.00
1956;DHT22;978;48.314;11.562;2024-02-23T09:39:36;20.40;64.10
1956;DHT22;978;48.314;11.562;2024-02-23T09:42:06;20.40;64.10
1956;DHT22;978;48.314;11.562;2024-02-23T09:44:37;20.40;64.00
1956;DHT22;978;48.314;11.562;2024-02-23T09:47:06;20.40;64.10
1956;DHT22;978;48.314;11.562;2024-02-23T09:49:39;20.40;64.00
1956;DHT22;978;48.314;11.562;2024-02-23T09:52:08;20.50;64.00
1956;DHT22;978;48.314;11.562;2024-02-23T09:54:37;20.40;64.00
1956;DHT22;978;48.314;11.562;2024-02-23T09:57:08;20.40;64.00
1956;DHT22;978;48.314;11.562;2024-02-23T09:59:35;20.40;64.00
1956;DHT22;978;48.314;11.562;2024-02-23T10:02:08;20.40;64.00
1956;DHT22;978;48.314;11.562;2024-02-23T10:04:36;20.40;64.00
1956;DHT22;978;48.314;11.562;2024-02-23T10:07:07;20.40;63.90
1956;DHT22;978;48.314;11.562;2024-02-23T10:09:36;20.40;63.90
1956;DHT22;978;48.314;11.562;2024-02-23T10:12:05;20.40;64.00
1956;DHT22;978;48.314;11.562;2024-02-23T10:14:35;20.50;64.00
1956;DHT22;978;48.314;11.562;2024-02-23T10:17:03;20.40;63.90
1956;DHT22;978;48.314;11.562;2024-02-23T10:19:35;20.40;64.00
1956;DHT22;978;48.314;11.562;2024-02-23T10:22:04;20.40;63.90
1956;DHT22;978;48.314;11.562;2024-02-23T10:24:36;20.40;63.90
1956;DHT22;978;48.314;11.562;2024-02-23T10:27:04;20.40;63.90
1956;DHT22;978;48.314;11.562;2024-02-23T10:29:32;20.40;63.90
1956;DHT22;978;48.314;11.562;2024-02-23T10:32:01;20.40;63.90
1956;DHT22;978;48.314;11.562;2024-02-23T10:34:30;20.40;63.90
1956;DHT22;978;48.314;11.562;2024-02-23T10:36:59;20.40;63.90
1956;DHT22;978;48.314;11.562;2024-02-23T10:39:30;20.40;63.80
1956;DHT22;978;48.314;11.562;2024-02-23T10:42:02;20.40;63.90
1956;DHT22;978;48.314;11.562;2024-02-23T10:44:31;20.40;63.90
1956;DHT22;978;48.314;11.562;2024-02-23T10:47:00;20.40;63.80
1956;DHT22;978;48.314;11.562;2024-02-23T10:49:30;20.40;63.80
1956;DHT22;978;48.314;11.562;2024-02-23T10:51:59;20.50;63.90
1956;DHT22;978;48.314;11.562;2024-02-23T10:54:31;20.40;63.80
1956;DHT22;978;48.314;11.562;2024-02-23T10:57:00;20.40;63.80
1956;DHT22;978;48.314;11.562;2024-02-23T10:59:29;20.40;63.80
1956;DHT22;978;48.314;11.562;2024-02-23T11:01:59;20.50;63.80
1956;DHT22;978;48.314;11.562;2024-02-23T11:04:28;20.40;63.80
1956;DHT22;978;48.314;11.562;2024-02-23T11:06:58;20.40;63.80
1956;DHT22;978;48.314;11.562;2024-02-23T11:09:31;20.40;63.70
1956;DHT22;978;48.314;11.562;2024-02-23T11:12:04;20.40;63.70
1956;DHT22;978;48.314;11.562;2024-02-23T11:14:34;20.40;63.60
1956;DHT22;978;48.314;11.562;2024-02-23T11:17:03;20.40;63.60
1956;DHT22;978;48.314;11.562;2024-02-23T11:19:37;20.40;63.60
1956;DHT22;978;48.314;11.562;2024-02-23T11:22:10;20.40;63.60
1956;DHT22;978;48.314;11.562;2024-02-23T11:24:42;20.40;63.60
1956;DHT22;978;48.314;11.562;2024-02-23T11:27:15;20.40;63.60
1956;DHT22;978;48.314;11.562;2024-02-23T11:29:45;20.40;63.50
1956;DHT22;978;48.314;11.562;2024-02-23T11:32:14;20.40;63.50
1956;DHT22;978;48.314;11.562;2024-02-23T11:34:53;20.40;63.50
1956;DHT22;978;48.314;11.562;2024-02-23T11:37:21;20.40;63.50
1956;DHT22;978;48.314;11.562;2024-02-23T11:39:50;20.40;63.50
1956;DHT22;978;48.314;11.562;2024-02-23T11:42:20;20.40;63.50
1956;DHT22;978;48.314;11.562;2024-02-23T11:44:49;20.40;63.50
1956;DHT22;978;48.314;11.562;2024-02-23T11:47:17;20.40;63.40
1956;DHT22;978;48.314;11.562;2024-02-23T11:49:45;20.40;63.40
1956;DHT22;978;48.314;11.562;2024-02-23T11:52:13;20.40;63.40
1956;DHT22;978;48.314;11.562;2024-02-23T11:54:41;20.40;63.40
1956;DHT22;978;48.314;11.562;2024-02-23T11:57:10;20.40;63.40
1956;DHT22;978;48.314;11.562;2024-02-23T11:59:41;20.40;63.30
1956;DHT22;978;48.314;11.562;2024-02-23T12:02:09;20.40;63.30
1956;DHT22;978;48.314;11.562;2024-02-23T12:04:37;20.40;63.30
1956;DHT22;978;48.314;11.562;2024-02-23T12:07:05;20.40;63.30
1956;DHT22;978;48.314;11.562;2024-02-23T12:09:33;20.50;63.30
1956;DHT22;978;48.314;11.562;2024-02-23T12:12:01;20.40;63.40
1956;DHT22;978;48.314;11.562;2024-02-23T12:14:29;20.40;63.20
1956;DHT22;978;48.314;11.562;2024-02-23T12:16:58;20.40;63.20
1956;DHT22;978;48.314;11.562;2024-02-23T12:19:26;20.40;63.20
1956;DHT22;978;48.314;11.562;2024-02-23T12:21:55;20.40;63.20
1956;DHT22;978;48.314;11.562;2024-02-23T12:24:27;20.40;63.10
1956;DHT22;978;48.314;11.562;2024-02-23T12:26:56;20.40;63.10
1956;DHT22;978;48.314;11.562;2024-02-23T12:29:23;20.40;63.10
1956;DHT22;978;48.314;11.562;2024-02-23T12:32:04;20.40;63.10
1956;DHT22;978;48.314;11.562;2024-02-23T12:34:32;20.40;63.10
1956;DHT22;978;48.314;11.562;2024-02-23T12:37:02;20.40;63.10
1956;DHT22;978;48.314;11.562;2024-02-23T12:39:32;20.40;63.10
1956;DHT22;978;48.314;11.562;2024-02-23T12:42:00;20.40;63.00
1956;DHT22;978;48.314;11.562;2024-02-23T12:44:27;20.40;63.00
1956;DHT22;978;48.314;11.562;2024-02-23T12:46:58;20.40;63.00
1956;DHT22;978;48.314;11.562;2024-02-23T12:49:27;20.40;62.90
1956;DHT22;978;48.314;11.562;2024-02-23T12:51:55;20.40;62.90
1956;DHT22;978;48.314;11.562;2024-02-23T12:54:26;20.40;63.00
1956;DHT22;978;48.314;11.562;2024-02-23T12:56:54;20.40;62.90
1956;DHT22;978;48.314;11.562;2024-02-23T12:59:24;20.40;63.00
1956;DHT22;978;48.314;11.562;2024-02-23T13:01:52;20.40;62.90
1956;DHT22;978;48.314;11.562;2024-02-23T13:04:20;20.40;62.90
1956;DHT22;978;48.314;11.562;2024-02-23T13:06:49;20.40;63.50
1956;DHT22;978;48.314;11.562;2024-02-23T13:09:17;20.40;62.90
1956;DHT22;978;48.314;11.562;2024-02-23T13:11:45;20.40;62.90
1956;DHT22;978;48.314;11.562;2024-02-23T13:14:14;20.40;62.90
1956;DHT22;978;48.314;11.562;2024-02-23T13:16:41;20.40;62.90
1956;DHT22;978;48.314;11.562;2024-02-23T13:19:10;20.40;63.00
1956;DHT22;978;48.314;11.562;2024-02-23T13:21:38;20.40;62.90
1956;DHT22;978;48.314;11.562;2024-02-23T13:24:11;20.40;62.90
1956;DHT22;978;48.314;11.562;2024-02-23T13:26:39;20.40;62.90
1956;DHT22;978;48.314;11.562;2024-02-23T13:29:06;20.40;62.90
1956;DHT22;978;48.314;11.562;2024-02-23T13:31:36;20.40;63.00
1956;DHT22;978;48.314;11.562;2024-02-23T13:34:05;20.40;62.90
1956;DHT22;978;48.314;11.562;2024-02-23T13:36:34;20.40;62.90
1956;DHT22;978;48.314;11.562;2024-02-23T13:39:02;20.30;62.90
1956;DHT22;978;48.314;11.562;2024-02-23T13:41:31;20.40;62.90
1956;DHT22;978;48.314;11.562;2024-02-23T13:43:59;20.40;62.90
1956;DHT22;978;48.314;11.562;2024-02-23T13:46:29;20.40;62.90
1956;DHT22;978;48.314;11.562;2024-02-23T13:49:09;22.60;64.20
1956;DHT22;978;48.314;11.562;2024-02-23T13:51:44;20.40;63.00
1956;DHT22;978;48.314;11.562;2024-02-23T13:54:11;20.40;62.90
1956;DHT22;978;48.314;11.562;2024-02-23T13:56:41;20.40;62.90
1956;DHT22;978;48.314;11.562;2024-02-23T13:59:09;20.40;62.90
1956;DHT22;978;48.314;11.562;2024-02-23T14:01:37;21.60;63.60
1956;DHT22;978;48.314;11.562;2024-02-23T14:04:20;20.40;62.90
1956;DHT22;978;48.314;11.562;2024-02-23T14:06:48;20.40;62.90
1956;DHT22;978;48.314;11.562;2024-02-23T14:09:16;20.40;63.00
1956;DHT22;978;48.314;11.562;2024-02-23T14:11:46;20.40;62.90
1956;DHT22;978;48.314;11.562;2024-02-23T14:14:14;20.40;62.90
1956;DHT22;978;48.314;11.562;2024-02-23T14:16:42;20.40;62.90
1956;DHT22;978;48.314;11.562;2024-02-23T14:19:10;20.40;62.90
1956;DHT22;978;48.314;11.562;2024-02-23T14:21:40;20.40;62.90
1956;DHT22;978;48.314;11.562;2024-02-23T14:24:08;20.40;63.00
1956;DHT22;978;48.314;11.562;2024-02-23T14:26:37;20.40;62.90
1956;DHT22;978;48.314;11.562;2024-02-23T14:29:06;20.40;62.90
1956;DHT22;978;48.314;11.562;2024-02-23T14:31:36;20.40;62.90
1956;DHT22;978;48.314;11.562;2024-02-23T14:34:04;20.40;62.90
1956;DHT22;978;48.314;11.562;2024-02-23T14:36:33;20.40;62.90
1956;DHT22;978;48.314;11.562;2024-02-23T14:39:01;20.40;62.90
1956;DHT22;978;48.314;11.562;2024-02-23T14:41:31;20.40;62.90
1956;DHT22;978;48.314;11.562;2024-02-23T14:43:59;20.40;62.90
1956;DHT22;978;48.314;11.562;2024-02-23T14:46:29;20.40;62.90
1956;DHT22;978;48.314;11.562;2024-02-23T14:48:56;20.40;62.90
1956;DHT22;978;48.314;11.562;2024-02-23T14:51:25;20.40;62.90
1956;DHT22;978;48.314;11.562;2024-02-23T14:53:53;20.40;62.80
1956;DHT22;978;48.314;11.562;2024-02-23T14:56:23;20.40;62.80
1956;DHT22;978;48.314;11.562;2024-02-23T14:58:51;20.40;62.80
1956;DHT22;978;48.314;11.562;2024-02-23T15:01:20;20.40;62.80
1956;DHT22;978;48.314;11.562;2024-02-23T15:03:49;20.40;62.80
1956;DHT22;978;48.314;11.562;2024-02-23T15:06:17;20.40;62.80
1956;DHT22;978;48.314;11.562;2024-02-23T15:08:45;20.40;62.70
1956;DHT22;978;48.314;11.562;2024-02-23T15:11:14;20.40;62.70
1956;DHT22;978;48.314;11.562;2024-02-23T15:13:42;20.40;62.70
1956;DHT22;978;48.314;11.562;2024-02-23T15:16:11;20.40;62.70
1956;DHT22;978;48.314;11.562;2024-02-23T15:18:39;20.40;62.70
1956;DHT22;978;48.314;11.562;2024-02-23T15:21:07;20.40;62.70
1956;DHT22;978;48.314;11.562;2024-02-23T15:23:38;20.40;62.90
1956;DHT22;978;48.314;11.562;2024-02-23T15:26:09;20.40;63.10
1956;DHT22;978;48.314;11.562;2024-02-23T15:28:38;20.40;63.20
1956;DHT22;978;48.314;11.562;2024-02-23T15:31:05;20.40;63.10
1956;DHT22;978;48.314;11.562;2024-02-23T15:33:36;20.40;63.10
1956;DHT22;978;48.314;11.562;2024-02-23T15:36:19;20.40;63.10
1956;DHT22;978;48.314;11.562;2024-02-23T15:38:47;20.40;63.10
1956;DHT22;978;48.314;11.562;2024-02-23T15:41:15;20.40;63.10
1956;DHT22;978;48.314;11.562;2024-02-23T15:43:43;20.40;63.20
1956;DHT22;978;48.314;11.562;2024-02-23T15:46:11;20.40;63.20
1956;DHT22;978;48.314;11.562;2024-02-23T15:48:39;20.40;63.80
1956;DHT22;978;48.314;11.562;2024-02-23T15:51:10;20.40;63.30
1956;DHT22;978;48.314;11.562;2024-02-23T15:53:38;20.40;63.30
1956;DHT22;978;48.314;11.562;2024-02-23T15:56:05;20.40;63.40
1956;DHT22;978;48.314;11.562;2024-02-23T15:58:36;20.40;63.40
1956;DHT22;978;48.314;11.562;2024-02-23T16:01:04;20.40;63.40
1956;DHT22;978;48.314;11.562;2024-02-23T16:03:32;20.40;63.50
1956;DHT22;978;48.314;11.562;2024-02-23T16:06:00;20.40;63.50
1956;DHT22;978;48.314;11.562;2024-02-23T16:08:39;20.40;63.50
1956;DHT22;978;48.314;11.562;2024-02-23T16:11:08;20.40;63.50
1956;DHT22;978;48.314;11.562;2024-02-23T16:13:38;20.40;63.50